createdAt,value
2017-04-06T17:23:20.872Z,3.84
2017-04-06T17:24:18.478Z,4.02
2017-04-06T17:25:16.816Z,3.18
2017-04-06T17:26:14.384Z,3.58
2017-04-06T17:27:12.757Z,3.18
2017-04-06T17:28:10.460Z,3.14
2017-04-06T17:29:08.092Z,3.96
2017-04-06T17:30:05.704Z,3.22
2017-04-06T17:31:03.292Z,2.84
2017-04-06T17:32:00.949Z,4.08
2017-04-06T17:32:59.156Z,2.88
2017-04-06T17:33:57.327Z,3.64
2017-04-06T17:34:54.972Z,3.08
2017-04-06T17:35:52.612Z,3.36
2017-04-06T17:36:50.229Z,3.58
2017-04-06T17:37:47.908Z,3.16
2017-04-06T17:38:45.544Z,3.52
2017-04-06T17:39:43.128Z,3.54
2017-04-06T17:40:40.715Z,3.20
2017-04-06T17:41:38.285Z,3.50
2017-04-06T17:42:36.239Z,3.32
2017-04-06T17:43:33.894Z,5.06
2017-04-06T17:44:34.016Z,8.36
2017-04-06T17:45:31.665Z,8.24
2017-04-06T17:46:29.239Z,6.62
2017-04-06T17:47:26.826Z,6.64
2017-04-06T17:48:24.475Z,5.68
2017-04-06T17:49:22.846Z,5.30
2017-04-06T17:50:20.457Z,5.40
2017-04-06T17:51:18.086Z,5.18
2017-04-06T17:52:15.652Z,5.76
2017-04-06T17:53:13.212Z,5.16
2017-04-06T17:54:13.837Z,4.86
2017-04-06T17:55:11.504Z,5.94
2017-04-06T17:56:09.853Z,4.86
2017-04-06T17:57:07.441Z,4.94
2017-04-06T17:58:05.121Z,5.50
2017-04-06T17:59:02.741Z,5.48
2017-04-06T18:00:00.308Z,5.22
2017-04-06T18:00:58.040Z,4.80
2017-04-06T18:01:55.726Z,5.14
2017-04-06T18:02:53.287Z,4.94
2017-04-06T18:03:50.856Z,4.08
2017-04-06T18:04:48.476Z,5.04
2017-04-06T18:05:46.039Z,3.92
2017-04-06T18:06:43.599Z,4.18
2017-04-06T18:07:41.212Z,4.84
2017-04-06T18:08:39.862Z,4.32
2017-04-06T18:09:38.068Z,4.64
2017-04-06T18:10:35.644Z,5.30
2017-04-06T18:11:33.217Z,4.76
2017-04-06T18:12:31.581Z,4.82
2017-04-06T18:13:29.262Z,3.86
2017-04-06T18:14:27.049Z,4.10
2017-04-06T18:15:26.126Z,4.02
2017-04-06T18:16:23.715Z,4.26
2017-04-06T18:17:21.372Z,3.70
2017-04-06T18:18:19.292Z,4.20
2017-04-06T18:19:16.937Z,4.20
2017-04-06T18:20:14.563Z,4.24
2017-04-06T18:21:12.601Z,4.34
2017-04-06T18:22:10.184Z,3.78
2017-04-06T18:23:07.741Z,4.12
2017-04-06T18:24:05.949Z,4.34
2017-04-06T18:25:03.522Z,3.84
2017-04-06T18:26:01.137Z,4.96
2017-04-06T18:27:06.780Z,4.32
2017-04-06T18:28:04.402Z,4.24
2017-04-06T18:29:01.965Z,4.12
2017-04-06T18:29:59.719Z,4.02
2017-04-06T18:30:57.736Z,4.58
2017-04-06T18:31:55.340Z,4.28
2017-04-06T18:32:53.700Z,3.76
2017-04-06T18:33:51.356Z,5.04
2017-04-06T18:34:48.960Z,4.54
2017-04-06T18:35:46.540Z,4.04
2017-04-06T18:36:44.828Z,4.40
2017-04-06T18:37:43.241Z,4.06
2017-04-06T18:38:41.676Z,3.46
2017-04-06T18:39:39.293Z,4.22
2017-04-06T18:40:36.941Z,4.32
2017-04-06T18:41:34.508Z,4.58
2017-04-06T18:42:33.284Z,4.28
2017-04-06T18:43:30.853Z,3.88
2017-04-06T18:44:28.464Z,3.90
2017-04-06T18:45:26.124Z,3.42
2017-04-06T18:46:23.683Z,3.78
2017-04-06T18:47:21.462Z,3.30
2017-04-06T18:48:19.063Z,4.32
2017-04-06T18:49:16.619Z,4.06
2017-04-06T18:50:14.396Z,3.68
2017-04-06T18:51:13.182Z,4.32
2017-04-06T18:52:10.844Z,3.40
2017-04-06T18:53:08.755Z,3.28
2017-04-06T18:54:06.416Z,3.76
2017-04-06T18:55:04.016Z,3.14
2017-04-06T18:56:01.737Z,3.76
2017-04-06T18:56:59.682Z,4.50
2017-04-06T18:58:00.451Z,4.02
2017-04-06T18:58:58.069Z,3.82
2017-04-06T18:59:55.643Z,3.82
2017-04-06T19:00:53.345Z,4.40
2017-04-06T19:01:51.051Z,4.12
2017-04-06T19:02:48.628Z,4.96
2017-04-06T19:03:46.214Z,4.08
2017-04-06T19:04:43.792Z,3.96
2017-04-06T19:05:41.372Z,4.88
2017-04-06T19:06:38.981Z,4.48
2017-04-06T19:07:36.600Z,3.64
2017-04-06T19:08:34.167Z,9.54
2017-04-06T19:09:31.906Z,55.22
2017-04-06T19:10:30.903Z,36.50
2017-04-06T19:11:29.199Z,35.58
2017-04-06T19:12:28.104Z,39.04
2017-04-06T19:13:26.752Z,39.52
2017-04-06T19:14:24.329Z,40.30
2017-04-06T19:15:22.060Z,38.68
2017-04-06T19:16:19.666Z,36.58
2017-04-06T19:17:17.636Z,34.88
2017-04-06T19:18:15.225Z,34.54
2017-04-06T19:19:15.284Z,36.00
2017-04-06T19:20:12.980Z,33.76
2017-04-06T19:21:10.737Z,31.62
2017-04-06T19:22:08.477Z,32.02
2017-04-06T19:23:06.098Z,29.16
2017-04-06T19:24:03.684Z,28.24
2017-04-06T19:25:01.882Z,26.94
2017-04-06T19:26:00.364Z,27.18
2017-04-06T19:26:58.184Z,26.04
2017-04-06T19:27:56.779Z,25.94
2017-04-06T19:28:55.129Z,24.66
2017-04-06T19:29:52.729Z,23.52
2017-04-06T19:30:50.340Z,21.60
2017-04-06T19:31:49.158Z,21.82
2017-04-06T19:32:46.885Z,20.22
2017-04-06T19:33:45.376Z,20.52
2017-04-06T19:34:43.903Z,19.48
2017-04-06T19:35:41.852Z,18.56
2017-04-06T19:36:39.736Z,18.44
2017-04-06T19:37:38.137Z,17.76
2017-04-06T19:38:35.752Z,18.16
2017-04-06T19:39:34.167Z,17.10
2017-04-06T19:40:32.179Z,16.44
2017-04-06T19:41:30.630Z,16.14
2017-04-06T19:42:28.892Z,16.34
2017-04-06T19:43:26.624Z,15.92
2017-04-06T19:44:24.212Z,16.90
2017-04-06T19:45:22.481Z,15.62
2017-04-06T19:46:20.148Z,16.00
2017-04-06T19:47:17.731Z,15.84
2017-04-06T19:48:15.364Z,16.74
2017-04-06T19:49:12.963Z,15.20
2017-04-06T19:50:10.580Z,14.58
2017-04-06T19:51:08.329Z,12.70
2017-04-06T19:52:05.969Z,15.28
2017-04-06T19:53:03.712Z,13.82
2017-04-06T19:54:01.506Z,14.02
2017-04-06T19:54:59.162Z,14.34
2017-04-06T19:55:56.774Z,13.34
2017-04-06T19:56:54.480Z,13.88
2017-04-06T19:57:52.202Z,13.76
2017-04-06T19:58:49.793Z,12.58
2017-04-06T19:59:47.425Z,12.44
2017-04-06T20:00:45.021Z,12.38
2017-04-06T20:01:44.187Z,12.94
2017-04-06T20:02:41.783Z,11.68
2017-04-06T20:03:39.652Z,12.62
2017-04-06T20:04:37.338Z,11.78
2017-04-06T20:05:35.137Z,11.60
2017-04-06T20:06:32.817Z,11.88
2017-04-06T20:07:30.390Z,11.12
2017-04-06T20:08:28.728Z,12.02
2017-04-06T20:09:26.335Z,10.96
2017-04-06T20:10:23.908Z,10.80
2017-04-06T20:11:22.252Z,10.68
2017-04-06T20:12:19.879Z,10.22
